sensor_id;sensor_type;location;lat;lon;timestamp;P1;durP1;ratioP1;P2;durP2;ratioP2
3133;SDS011;1577;49.912;10.924;2023-05-20T00:00:45;4.43;;;3.43;;
3133;SDS011;1577;49.912;10.924;2023-05-20T00:03:13;5.80;;;3.47;;
3133;SDS011;1577;49.912;10.924;2023-05-20T00:05:39;5.20;;;3.30;;
3133;SDS011;1577;49.912;10.924;2023-05-20T00:08:04;6.63;;;3.90;;
3133;SDS011;1577;49.912;10.924;2023-05-20T00:10:33;4.67;;;3.40;;
3133;SDS011;1577;49.912;10.924;2023-05-20T00:13:02;6.40;;;3.57;;
3133;SDS011;1577;49.912;10.924;2023-05-20T00:15:28;6.03;;;4.17;;
3133;SDS011;1577;49.912;10.924;2023-05-20T00:17:54;6.67;;;3.97;;
3133;SDS011;1577;49.912;10.924;2023-05-20T00:20:19;6.50;;;4.40;;
3133;SDS011;1577;49.912;10.924;2023-05-20T00:22:45;5.10;;;3.80;;
3133;SDS011;1577;49.912;10.924;2023-05-20T00:25:11;7.67;;;3.60;;
3133;SDS011;1577;49.912;10.924;2023-05-20T00:27:38;5.30;;;3.87;;
3133;SDS011;1577;49.912;10.924;2023-05-20T00:30:07;9.03;;;3.77;;
3133;SDS011;1577;49.912;10.924;2023-05-20T00:32:33;5.40;;;3.70;;
3133;SDS011;1577;49.912;10.924;2023-05-20T00:35:00;4.80;;;3.50;;
3133;SDS011;1577;49.912;10.924;2023-05-20T00:37:26;5.10;;;3.50;;
3133;SDS011;1577;49.912;10.924;2023-05-20T00:39:52;5.00;;;3.83;;
3133;SDS011;1577;49.912;10.924;2023-05-20T00:42:25;4.90;;;3.37;;
3133;SDS011;1577;49.912;10.924;2023-05-20T00:44:51;8.00;;;4.03;;
3133;SDS011;1577;49.912;10.924;2023-05-20T00:47:18;5.67;;;3.90;;
3133;SDS011;1577;49.912;10.924;2023-05-20T00:49:45;8.20;;;4.00;;
3133;SDS011;1577;49.912;10.924;2023-05-20T00:52:12;5.87;;;4.40;;
3133;SDS011;1577;49.912;10.924;2023-05-20T00:54:39;5.80;;;3.50;;
3133;SDS011;1577;49.912;10.924;2023-05-20T00:57:05;6.77;;;4.37;;
3133;SDS011;1577;49.912;10.924;2023-05-20T00:59:32;7.43;;;5.03;;
3133;SDS011;1577;49.912;10.924;2023-05-20T01:01:59;6.60;;;4.60;;
3133;SDS011;1577;49.912;10.924;2023-05-20T01:04:25;5.83;;;4.20;;
3133;SDS011;1577;49.912;10.924;2023-05-20T01:06:51;5.80;;;3.87;;
3133;SDS011;1577;49.912;10.924;2023-05-20T01:09:17;6.37;;;4.13;;
3133;SDS011;1577;49.912;10.924;2023-05-20T01:12:02;6.70;;;4.43;;
3133;SDS011;1577;49.912;10.924;2023-05-20T01:14:31;6.80;;;4.43;;
3133;SDS011;1577;49.912;10.924;2023-05-20T01:17:00;7.60;;;4.20;;
3133;SDS011;1577;49.912;10.924;2023-05-20T01:19:43;5.40;;;3.87;;
3133;SDS011;1577;49.912;10.924;2023-05-20T01:22:09;6.33;;;3.87;;
3133;SDS011;1577;49.912;10.924;2023-05-20T01:24:43;6.00;;;4.43;;
3133;SDS011;1577;49.912;10.924;2023-05-20T01:27:12;5.30;;;3.87;;
3133;SDS011;1577;49.912;10.924;2023-05-20T01:29:39;5.23;;;3.80;;
3133;SDS011;1577;49.912;10.924;2023-05-20T01:32:06;7.33;;;4.70;;
3133;SDS011;1577;49.912;10.924;2023-05-20T01:34:40;7.73;;;4.67;;
3133;SDS011;1577;49.912;10.924;2023-05-20T01:37:07;4.90;;;3.93;;
3133;SDS011;1577;49.912;10.924;2023-05-20T01:39:34;5.60;;;4.07;;
3133;SDS011;1577;49.912;10.924;2023-05-20T01:42:05;5.43;;;4.10;;
3133;SDS011;1577;49.912;10.924;2023-05-20T01:44:32;6.93;;;4.20;;
3133;SDS011;1577;49.912;10.924;2023-05-20T01:46:58;7.70;;;5.00;;
3133;SDS011;1577;49.912;10.924;2023-05-20T01:49:25;5.90;;;4.40;;
3133;SDS011;1577;49.912;10.924;2023-05-20T01:51:51;6.73;;;4.70;;
3133;SDS011;1577;49.912;10.924;2023-05-20T01:54:16;7.97;;;3.77;;
3133;SDS011;1577;49.912;10.924;2023-05-20T01:56:42;5.80;;;3.63;;
3133;SDS011;1577;49.912;10.924;2023-05-20T01:59:10;5.77;;;4.00;;
3133;SDS011;1577;49.912;10.924;2023-05-20T02:01:35;7.53;;;4.17;;
3133;SDS011;1577;49.912;10.924;2023-05-20T02:04:01;6.10;;;4.60;;
3133;SDS011;1577;49.912;10.924;2023-05-20T02:06:26;7.20;;;4.93;;
3133;SDS011;1577;49.912;10.924;2023-05-20T02:08:52;6.90;;;4.17;;
3133;SDS011;1577;49.912;10.924;2023-05-20T02:11:18;7.27;;;4.57;;
3133;SDS011;1577;49.912;10.924;2023-05-20T02:13:43;6.40;;;4.30;;
3133;SDS011;1577;49.912;10.924;2023-05-20T02:16:09;8.23;;;4.50;;
3133;SDS011;1577;49.912;10.924;2023-05-20T02:18:35;8.50;;;4.83;;
3133;SDS011;1577;49.912;10.924;2023-05-20T02:21:01;5.97;;;5.27;;
3133;SDS011;1577;49.912;10.924;2023-05-20T02:23:28;6.07;;;4.37;;
3133;SDS011;1577;49.912;10.924;2023-05-20T02:25:54;7.67;;;4.87;;
3133;SDS011;1577;49.912;10.924;2023-05-20T02:28:19;5.50;;;4.03;;
3133;SDS011;1577;49.912;10.924;2023-05-20T02:30:45;6.77;;;5.00;;
3133;SDS011;1577;49.912;10.924;2023-05-20T02:33:11;7.20;;;4.90;;
3133;SDS011;1577;49.912;10.924;2023-05-20T02:35:37;5.40;;;4.00;;
3133;SDS011;1577;49.912;10.924;2023-05-20T02:38:03;7.33;;;4.90;;
3133;SDS011;1577;49.912;10.924;2023-05-20T02:40:32;7.87;;;5.43;;
3133;SDS011;1577;49.912;10.924;2023-05-20T02:42:58;7.00;;;4.63;;
3133;SDS011;1577;49.912;10.924;2023-05-20T02:45:28;6.93;;;5.30;;
3133;SDS011;1577;49.912;10.924;2023-05-20T02:47:53;7.17;;;5.10;;
3133;SDS011;1577;49.912;10.924;2023-05-20T02:50:19;6.47;;;4.93;;
3133;SDS011;1577;49.912;10.924;2023-05-20T02:52:45;7.73;;;5.00;;
3133;SDS011;1577;49.912;10.924;2023-05-20T02:55:11;6.97;;;4.80;;
3133;SDS011;1577;49.912;10.924;2023-05-20T02:57:36;7.50;;;4.77;;
3133;SDS011;1577;49.912;10.924;2023-05-20T03:00:03;7.20;;;5.50;;
3133;SDS011;1577;49.912;10.924;2023-05-20T03:02:34;8.87;;;5.20;;
3133;SDS011;1577;49.912;10.924;2023-05-20T03:05:01;7.20;;;5.50;;
3133;SDS011;1577;49.912;10.924;2023-05-20T03:07:27;7.07;;;5.57;;
3133;SDS011;1577;49.912;10.924;2023-05-20T03:09:54;7.70;;;5.60;;
3133;SDS011;1577;49.912;10.924;2023-05-20T03:12:20;7.03;;;5.50;;
3133;SDS011;1577;49.912;10.924;2023-05-20T03:14:45;7.60;;;5.63;;
3133;SDS011;1577;49.912;10.924;2023-05-20T03:17:11;9.43;;;5.60;;
3133;SDS011;1577;49.912;10.924;2023-05-20T03:19:36;5.90;;;4.83;;
3133;SDS011;1577;49.912;10.924;2023-05-20T03:22:02;7.70;;;5.93;;
3133;SDS011;1577;49.912;10.924;2023-05-20T03:24:28;7.07;;;5.43;;
3133;SDS011;1577;49.912;10.924;2023-05-20T03:26:54;7.57;;;5.60;;
3133;SDS011;1577;49.912;10.924;2023-05-20T03:29:20;7.20;;;5.40;;
3133;SDS011;1577;49.912;10.924;2023-05-20T03:31:46;9.10;;;5.33;;
3133;SDS011;1577;49.912;10.924;2023-05-20T03:34:12;7.23;;;5.50;;
3133;SDS011;1577;49.912;10.924;2023-05-20T03:36:38;6.93;;;5.33;;
3133;SDS011;1577;49.912;10.924;2023-05-20T03:39:03;9.70;;;5.53;;
3133;SDS011;1577;49.912;10.924;2023-05-20T03:41:29;8.73;;;5.77;;
3133;SDS011;1577;49.912;10.924;2023-05-20T03:43:55;7.07;;;5.70;;
3133;SDS011;1577;49.912;10.924;2023-05-20T03:46:21;7.43;;;5.90;;
3133;SDS011;1577;49.912;10.924;2023-05-20T03:48:46;9.50;;;6.13;;
3133;SDS011;1577;49.912;10.924;2023-05-20T03:51:12;7.57;;;5.83;;
3133;SDS011;1577;49.912;10.924;2023-05-20T03:53:37;8.80;;;6.23;;
3133;SDS011;1577;49.912;10.924;2023-05-20T03:56:03;8.93;;;5.63;;
3133;SDS011;1577;49.912;10.924;2023-05-20T03:58:29;7.80;;;6.10;;
3133;SDS011;1577;49.912;10.924;2023-05-20T04:00:55;7.93;;;5.67;;
3133;SDS011;1577;49.912;10.924;2023-05-20T04:03:21;8.53;;;5.83;;
3133;SDS011;1577;49.912;10.924;2023-05-20T04:05:47;9.37;;;6.23;;
3133;SDS011;1577;49.912;10.924;2023-05-20T04:08:13;8.40;;;5.77;;
3133;SDS011;1577;49.912;10.924;2023-05-20T04:10:42;9.30;;;6.40;;
3133;SDS011;1577;49.912;10.924;2023-05-20T04:13:07;8.60;;;6.50;;
3133;SDS011;1577;49.912;10.924;2023-05-20T04:15:34;9.43;;;6.20;;
3133;SDS011;1577;49.912;10.924;2023-05-20T04:18:00;8.13;;;6.23;;
3133;SDS011;1577;49.912;10.924;2023-05-20T04:20:26;8.90;;;6.70;;
3133;SDS011;1577;49.912;10.924;2023-05-20T04:22:52;10.80;;;6.27;;
3133;SDS011;1577;49.912;10.924;2023-05-20T04:25:18;9.83;;;7.00;;
3133;SDS011;1577;49.912;10.924;2023-05-20T04:27:44;9.70;;;6.93;;
3133;SDS011;1577;49.912;10.924;2023-05-20T04:30:10;8.13;;;6.53;;
3133;SDS011;1577;49.912;10.924;2023-05-20T04:32:36;10.00;;;7.00;;
3133;SDS011;1577;49.912;10.924;2023-05-20T04:35:02;10.30;;;7.17;;
3133;SDS011;1577;49.912;10.924;2023-05-20T04:37:32;8.43;;;6.07;;
3133;SDS011;1577;49.912;10.924;2023-05-20T04:39:58;10.10;;;6.23;;
3133;SDS011;1577;49.912;10.924;2023-05-20T04:42:30;9.57;;;6.77;;
3133;SDS011;1577;49.912;10.924;2023-05-20T04:44:59;8.50;;;6.90;;
3133;SDS011;1577;49.912;10.924;2023-05-20T04:47:29;8.90;;;6.40;;
3133;SDS011;1577;49.912;10.924;2023-05-20T04:49:56;9.40;;;6.70;;
3133;SDS011;1577;49.912;10.924;2023-05-20T04:52:24;8.97;;;6.97;;
3133;SDS011;1577;49.912;10.924;2023-05-20T04:54:50;10.87;;;7.10;;
3133;SDS011;1577;49.912;10.924;2023-05-20T04:57:16;9.67;;;7.00;;
3133;SDS011;1577;49.912;10.924;2023-05-20T04:59:45;10.17;;;6.63;;
3133;SDS011;1577;49.912;10.924;2023-05-20T05:02:13;9.40;;;7.10;;
3133;SDS011;1577;49.912;10.924;2023-05-20T05:04:39;9.30;;;6.20;;
3133;SDS011;1577;49.912;10.924;2023-05-20T05:07:05;10.30;;;7.60;;
3133;SDS011;1577;49.912;10.924;2023-05-20T05:09:30;8.90;;;7.13;;
3133;SDS011;1577;49.912;10.924;2023-05-20T05:11:56;9.43;;;6.83;;
3133;SDS011;1577;49.912;10.924;2023-05-20T05:14:21;10.53;;;7.20;;
3133;SDS011;1577;49.912;10.924;2023-05-20T05:16:47;9.13;;;6.23;;
3133;SDS011;1577;49.912;10.924;2023-05-20T05:19:13;15.70;;;7.47;;
3133;SDS011;1577;49.912;10.924;2023-05-20T05:21:39;9.80;;;7.33;;
3133;SDS011;1577;49.912;10.924;2023-05-20T05:24:05;9.97;;;7.10;;
3133;SDS011;1577;49.912;10.924;2023-05-20T05:26:31;10.30;;;7.33;;
3133;SDS011;1577;49.912;10.924;2023-05-20T05:28:56;12.40;;;7.63;;
3133;SDS011;1577;49.912;10.924;2023-05-20T05:31:22;10.40;;;7.83;;
3133;SDS011;1577;49.912;10.924;2023-05-20T05:33:48;11.53;;;8.10;;
3133;SDS011;1577;49.912;10.924;2023-05-20T05:36:14;11.53;;;7.60;;
3133;SDS011;1577;49.912;10.924;2023-05-20T05:38:40;7.93;;;6.63;;
3133;SDS011;1577;49.912;10.924;2023-05-20T05:41:05;9.80;;;7.70;;
3133;SDS011;1577;49.912;10.924;2023-05-20T05:43:31;9.30;;;7.00;;
3133;SDS011;1577;49.912;10.924;2023-05-20T05:45:56;9.93;;;7.47;;
3133;SDS011;1577;49.912;10.924;2023-05-20T05:48:22;11.27;;;7.77;;
3133;SDS011;1577;49.912;10.924;2023-05-20T05:50:48;13.07;;;8.33;;
3133;SDS011;1577;49.912;10.924;2023-05-20T05:53:13;9.63;;;7.23;;
3133;SDS011;1577;49.912;10.924;2023-05-20T05:55:39;14.43;;;8.90;;
3133;SDS011;1577;49.912;10.924;2023-05-20T05:58:05;10.43;;;7.77;;
3133;SDS011;1577;49.912;10.924;2023-05-20T06:00:30;11.10;;;7.93;;
3133;SDS011;1577;49.912;10.924;2023-05-20T06:02:56;10.10;;;7.90;;
3133;SDS011;1577;49.912;10.924;2023-05-20T06:05:21;9.70;;;7.73;;
3133;SDS011;1577;49.912;10.924;2023-05-20T06:07:47;9.73;;;7.53;;
3133;SDS011;1577;49.912;10.924;2023-05-20T06:10:13;7.93;;;6.57;;
3133;SDS011;1577;49.912;10.924;2023-05-20T06:12:38;12.20;;;8.20;;
3133;SDS011;1577;49.912;10.924;2023-05-20T06:15:04;9.73;;;6.87;;
3133;SDS011;1577;49.912;10.924;2023-05-20T06:17:31;8.40;;;6.87;;
3133;SDS011;1577;49.912;10.924;2023-05-20T06:19:57;8.00;;;6.33;;
3133;SDS011;1577;49.912;10.924;2023-05-20T06:22:22;8.90;;;6.90;;
3133;SDS011;1577;49.912;10.924;2023-05-20T06:24:48;10.63;;;6.93;;
3133;SDS011;1577;49.912;10.924;2023-05-20T06:27:14;12.77;;;8.20;;
3133;SDS011;1577;49.912;10.924;2023-05-20T06:29:40;9.80;;;7.60;;
3133;SDS011;1577;49.912;10.924;2023-05-20T06:32:06;9.80;;;7.10;;
3133;SDS011;1577;49.912;10.924;2023-05-20T06:34:32;7.97;;;7.00;;
3133;SDS011;1577;49.912;10.924;2023-05-20T06:36:58;8.90;;;6.83;;
3133;SDS011;1577;49.912;10.924;2023-05-20T06:39:23;9.40;;;6.20;;
3133;SDS011;1577;49.912;10.924;2023-05-20T06:41:49;10.10;;;7.20;;
3133;SDS011;1577;49.912;10.924;2023-05-20T06:44:16;9.43;;;6.90;;
3133;SDS011;1577;49.912;10.924;2023-05-20T06:46:42;8.30;;;6.87;;
3133;SDS011;1577;49.912;10.924;2023-05-20T06:49:08;7.63;;;5.60;;
3133;SDS011;1577;49.912;10.924;2023-05-20T06:51:34;6.83;;;5.47;;
3133;SDS011;1577;49.912;10.924;2023-05-20T06:53:59;9.10;;;5.90;;
3133;SDS011;1577;49.912;10.924;2023-05-20T06:56:25;10.60;;;7.07;;
3133;SDS011;1577;49.912;10.924;2023-05-20T06:58:50;8.00;;;5.53;;
3133;SDS011;1577;49.912;10.924;2023-05-20T07:01:16;8.20;;;5.53;;
3133;SDS011;1577;49.912;10.924;2023-05-20T07:03:42;7.87;;;5.77;;
3133;SDS011;1577;49.912;10.924;2023-05-20T07:06:08;9.33;;;5.47;;
3133;SDS011;1577;49.912;10.924;2023-05-20T07:08:34;8.20;;;6.10;;
3133;SDS011;1577;49.912;10.924;2023-05-20T07:11:00;8.20;;;7.33;;
3133;SDS011;1577;49.912;10.924;2023-05-20T07:13:25;7.80;;;5.70;;
3133;SDS011;1577;49.912;10.924;2023-05-20T07:15:51;5.93;;;5.30;;
3133;SDS011;1577;49.912;10.924;2023-05-20T07:18:17;8.10;;;6.00;;
3133;SDS011;1577;49.912;10.924;2023-05-20T07:20:42;8.00;;;5.33;;
3133;SDS011;1577;49.912;10.924;2023-05-20T07:23:08;7.73;;;6.17;;
3133;SDS011;1577;49.912;10.924;2023-05-20T07:25:34;10.13;;;5.33;;
3133;SDS011;1577;49.912;10.924;2023-05-20T07:28:00;7.07;;;5.73;;
3133;SDS011;1577;49.912;10.924;2023-05-20T07:30:25;6.87;;;6.17;;
3133;SDS011;1577;49.912;10.924;2023-05-20T07:32:52;7.17;;;6.20;;
3133;SDS011;1577;49.912;10.924;2023-05-20T07:35:17;7.23;;;5.67;;
3133;SDS011;1577;49.912;10.924;2023-05-20T07:37:43;7.33;;;5.93;;
3133;SDS011;1577;49.912;10.924;2023-05-20T07:40:08;6.33;;;5.60;;
3133;SDS011;1577;49.912;10.924;2023-05-20T07:42:34;7.33;;;5.67;;
3133;SDS011;1577;49.912;10.924;2023-05-20T07:45:00;7.23;;;5.60;;
3133;SDS011;1577;49.912;10.924;2023-05-20T07:47:26;6.90;;;5.20;;
3133;SDS011;1577;49.912;10.924;2023-05-20T07:49:51;8.07;;;6.23;;
3133;SDS011;1577;49.912;10.924;2023-05-20T07:52:17;8.10;;;5.80;;
3133;SDS011;1577;49.912;10.924;2023-05-20T07:54:42;7.13;;;5.60;;
3133;SDS011;1577;49.912;10.924;2023-05-20T07:57:08;5.80;;;5.17;;
3133;SDS011;1577;49.912;10.924;2023-05-20T07:59:34;6.20;;;5.10;;
3133;SDS011;1577;49.912;10.924;2023-05-20T08:01:59;8.00;;;6.20;;
3133;SDS011;1577;49.912;10.924;2023-05-20T08:04:25;6.33;;;5.27;;
3133;SDS011;1577;49.912;10.924;2023-05-20T08:06:51;7.67;;;5.67;;
3133;SDS011;1577;49.912;10.924;2023-05-20T08:09:17;7.37;;;5.20;;
3133;SDS011;1577;49.912;10.924;2023-05-20T08:11:43;6.30;;;4.77;;
3133;SDS011;1577;49.912;10.924;2023-05-20T08:14:09;6.97;;;6.17;;
3133;SDS011;1577;49.912;10.924;2023-05-20T08:16:34;6.20;;;5.57;;
3133;SDS011;1577;49.912;10.924;2023-05-20T08:19:00;6.83;;;5.13;;
3133;SDS011;1577;49.912;10.924;2023-05-20T08:21:26;5.60;;;4.90;;
3133;SDS011;1577;49.912;10.924;2023-05-20T08:23:52;6.90;;;5.27;;
3133;SDS011;1577;49.912;10.924;2023-05-20T08:26:18;9.03;;;5.27;;
3133;SDS011;1577;49.912;10.924;2023-05-20T08:28:43;6.97;;;4.70;;
3133;SDS011;1577;49.912;10.924;2023-05-20T08:31:09;5.40;;;4.70;;
3133;SDS011;1577;49.912;10.924;2023-05-20T08:33:35;6.30;;;5.10;;
3133;SDS011;1577;49.912;10.924;2023-05-20T08:36:00;5.73;;;4.83;;
3133;SDS011;1577;49.912;10.924;2023-05-20T08:38:26;8.37;;;5.50;;
3133;SDS011;1577;49.912;10.924;2023-05-20T08:40:55;6.63;;;5.23;;
3133;SDS011;1577;49.912;10.924;2023-05-20T08:43:21;6.00;;;5.07;;
3133;SDS011;1577;49.912;10.924;2023-05-20T08:45:48;8.00;;;5.50;;
3133;SDS011;1577;49.912;10.924;2023-05-20T08:48:16;7.70;;;5.43;;
3133;SDS011;1577;49.912;10.924;2023-05-20T08:50:43;5.80;;;5.17;;
3133;SDS011;1577;49.912;10.924;2023-05-20T08:53:12;6.07;;;5.17;;
3133;SDS011;1577;49.912;10.924;2023-05-20T08:55:41;7.27;;;5.40;;
3133;SDS011;1577;49.912;10.924;2023-05-20T08:58:10;6.30;;;4.93;;
3133;SDS011;1577;49.912;10.924;2023-05-20T09:00:36;9.03;;;5.33;;
3133;SDS011;1577;49.912;10.924;2023-05-20T09:03:02;7.47;;;5.47;;
3133;SDS011;1577;49.912;10.924;2023-05-20T09:05:29;6.53;;;5.83;;
3133;SDS011;1577;49.912;10.924;2023-05-20T09:10:51;7.53;;;5.73;;
3133;SDS011;1577;49.912;10.924;2023-05-20T09:13:18;6.63;;;5.50;;
3133;SDS011;1577;49.912;10.924;2023-05-20T09:15:45;6.87;;;5.60;;
3133;SDS011;1577;49.912;10.924;2023-05-20T09:18:10;6.40;;;5.30;;
3133;SDS011;1577;49.912;10.924;2023-05-20T09:20:36;8.47;;;6.43;;
3133;SDS011;1577;49.912;10.924;2023-05-20T09:23:03;6.93;;;5.63;;
3133;SDS011;1577;49.912;10.924;2023-05-20T09:25:30;7.93;;;5.77;;
3133;SDS011;1577;49.912;10.924;2023-05-20T09:27:56;8.20;;;5.87;;
3133;SDS011;1577;49.912;10.924;2023-05-20T09:30:22;6.43;;;4.97;;
3133;SDS011;1577;49.912;10.924;2023-05-20T09:32:58;6.10;;;4.70;;
3133;SDS011;1577;49.912;10.924;2023-05-20T09:35:25;7.63;;;5.20;;
3133;SDS011;1577;49.912;10.924;2023-05-20T09:37:56;9.47;;;5.50;;
3133;SDS011;1577;49.912;10.924;2023-05-20T09:40:23;6.77;;;5.20;;
3133;SDS011;1577;49.912;10.924;2023-05-20T09:42:53;6.43;;;5.50;;
3133;SDS011;1577;49.912;10.924;2023-05-20T09:45:23;9.53;;;5.73;;
3133;SDS011;1577;49.912;10.924;2023-05-20T09:47:50;6.60;;;5.90;;
3133;SDS011;1577;49.912;10.924;2023-05-20T09:50:17;10.73;;;6.10;;
3133;SDS011;1577;49.912;10.924;2023-05-20T09:52:45;6.27;;;5.30;;
3133;SDS011;1577;49.912;10.924;2023-05-20T09:55:15;5.37;;;4.80;;
3133;SDS011;1577;49.912;10.924;2023-05-20T09:57:45;6.40;;;5.50;;
3133;SDS011;1577;49.912;10.924;2023-05-20T10:00:11;6.57;;;5.67;;
3133;SDS011;1577;49.912;10.924;2023-05-20T10:02:40;6.93;;;5.43;;
3133;SDS011;1577;49.912;10.924;2023-05-20T10:05:17;7.50;;;5.93;;
3133;SDS011;1577;49.912;10.924;2023-05-20T10:11:01;9.43;;;6.97;;
3133;SDS011;1577;49.912;10.924;2023-05-20T10:22:05;6.93;;;5.77;;
3133;SDS011;1577;49.912;10.924;2023-05-20T10:24:56;8.40;;;5.87;;
3133;SDS011;1577;49.912;10.924;2023-05-20T10:27:25;7.67;;;6.13;;
3133;SDS011;1577;49.912;10.924;2023-05-20T10:29:52;8.43;;;6.80;;
3133;SDS011;1577;49.912;10.924;2023-05-20T10:35:02;10.60;;;6.03;;
3133;SDS011;1577;49.912;10.924;2023-05-20T10:37:30;8.43;;;6.20;;
3133;SDS011;1577;49.912;10.924;2023-05-20T10:42:40;8.83;;;5.90;;
3133;SDS011;1577;49.912;10.924;2023-05-20T10:45:06;9.50;;;6.30;;
3133;SDS011;1577;49.912;10.924;2023-05-20T10:47:36;16.13;;;7.40;;
3133;SDS011;1577;49.912;10.924;2023-05-20T10:50:27;8.23;;;6.43;;
3133;SDS011;1577;49.912;10.924;2023-05-20T10:53:04;7.30;;;5.90;;
3133;SDS011;1577;49.912;10.924;2023-05-20T10:55:34;9.20;;;6.10;;
3133;SDS011;1577;49.912;10.924;2023-05-20T10:58:01;7.47;;;6.13;;
3133;SDS011;1577;49.912;10.924;2023-05-20T11:00:27;9.77;;;6.00;;
3133;SDS011;1577;49.912;10.924;2023-05-20T11:02:53;8.10;;;5.70;;
3133;SDS011;1577;49.912;10.924;2023-05-20T11:05:20;7.60;;;5.80;;
3133;SDS011;1577;49.912;10.924;2023-05-20T11:07:46;8.40;;;6.43;;
3133;SDS011;1577;49.912;10.924;2023-05-20T11:10:11;9.40;;;6.50;;
3133;SDS011;1577;49.912;10.924;2023-05-20T11:12:37;8.97;;;5.80;;
3133;SDS011;1577;49.912;10.924;2023-05-20T11:15:03;7.37;;;5.70;;
3133;SDS011;1577;49.912;10.924;2023-05-20T11:17:29;7.30;;;5.57;;
3133;SDS011;1577;49.912;10.924;2023-05-20T11:19:55;9.57;;;6.03;;
3133;SDS011;1577;49.912;10.924;2023-05-20T11:22:24;7.13;;;5.80;;
3133;SDS011;1577;49.912;10.924;2023-05-20T11:24:50;7.97;;;5.80;;
3133;SDS011;1577;49.912;10.924;2023-05-20T11:27:16;9.10;;;6.20;;
3133;SDS011;1577;49.912;10.924;2023-05-20T11:29:43;8.53;;;5.83;;
3133;SDS011;1577;49.912;10.924;2023-05-20T11:32:08;8.70;;;6.47;;
3133;SDS011;1577;49.912;10.924;2023-05-20T11:34:34;9.87;;;6.23;;
3133;SDS011;1577;49.912;10.924;2023-05-20T11:37:01;7.87;;;5.87;;
3133;SDS011;1577;49.912;10.924;2023-05-20T11:39:29;8.43;;;5.13;;
3133;SDS011;1577;49.912;10.924;2023-05-20T11:41:56;9.80;;;6.30;;
3133;SDS011;1577;49.912;10.924;2023-05-20T11:44:23;8.07;;;5.53;;
3133;SDS011;1577;49.912;10.924;2023-05-20T11:46:48;8.07;;;6.00;;
3133;SDS011;1577;49.912;10.924;2023-05-20T11:49:15;7.73;;;6.77;;
3133;SDS011;1577;49.912;10.924;2023-05-20T11:51:44;6.73;;;5.50;;
3133;SDS011;1577;49.912;10.924;2023-05-20T11:54:09;10.00;;;5.30;;
3133;SDS011;1577;49.912;10.924;2023-05-20T11:56:35;6.90;;;4.97;;
3133;SDS011;1577;49.912;10.924;2023-05-20T11:59:03;5.43;;;4.53;;
3133;SDS011;1577;49.912;10.924;2023-05-20T12:01:33;6.47;;;5.30;;
3133;SDS011;1577;49.912;10.924;2023-05-20T12:04:07;7.00;;;4.70;;
3133;SDS011;1577;49.912;10.924;2023-05-20T12:06:33;7.00;;;4.83;;
3133;SDS011;1577;49.912;10.924;2023-05-20T12:09:01;6.20;;;4.80;;
3133;SDS011;1577;49.912;10.924;2023-05-20T12:11:32;6.80;;;5.40;;
3133;SDS011;1577;49.912;10.924;2023-05-20T12:14:02;6.20;;;4.87;;
3133;SDS011;1577;49.912;10.924;2023-05-20T12:16:28;6.90;;;5.33;;
3133;SDS011;1577;49.912;10.924;2023-05-20T12:18:57;7.70;;;5.30;;
3133;SDS011;1577;49.912;10.924;2023-05-20T12:21:23;10.43;;;5.47;;
3133;SDS011;1577;49.912;10.924;2023-05-20T12:23:49;7.37;;;6.00;;
3133;SDS011;1577;49.912;10.924;2023-05-20T12:26:14;6.80;;;5.27;;
3133;SDS011;1577;49.912;10.924;2023-05-20T12:28:40;6.63;;;5.90;;
3133;SDS011;1577;49.912;10.924;2023-05-20T12:31:07;7.00;;;5.60;;
3133;SDS011;1577;49.912;10.924;2023-05-20T12:33:33;7.27;;;5.20;;
3133;SDS011;1577;49.912;10.924;2023-05-20T12:35:58;7.20;;;4.83;;
3133;SDS011;1577;49.912;10.924;2023-05-20T12:38:24;5.80;;;4.77;;
3133;SDS011;1577;49.912;10.924;2023-05-20T12:40:49;7.03;;;4.70;;
3133;SDS011;1577;49.912;10.924;2023-05-20T12:43:15;10.30;;;4.97;;
3133;SDS011;1577;49.912;10.924;2023-05-20T12:45:41;11.70;;;5.70;;
3133;SDS011;1577;49.912;10.924;2023-05-20T12:48:06;6.27;;;4.87;;
3133;SDS011;1577;49.912;10.924;2023-05-20T12:50:32;8.73;;;5.70;;
3133;SDS011;1577;49.912;10.924;2023-05-20T12:52:58;6.93;;;4.80;;
3133;SDS011;1577;49.912;10.924;2023-05-20T12:55:23;6.77;;;5.00;;
3133;SDS011;1577;49.912;10.924;2023-05-20T12:57:49;5.80;;;5.20;;
3133;SDS011;1577;49.912;10.924;2023-05-20T13:00:15;8.03;;;5.30;;
3133;SDS011;1577;49.912;10.924;2023-05-20T13:02:41;7.50;;;5.33;;
3133;SDS011;1577;49.912;10.924;2023-05-20T13:05:07;5.23;;;4.73;;
3133;SDS011;1577;49.912;10.924;2023-05-20T13:07:33;6.33;;;4.80;;
3133;SDS011;1577;49.912;10.924;2023-05-20T13:09:58;5.83;;;4.10;;
3133;SDS011;1577;49.912;10.924;2023-05-20T13:12:24;6.30;;;4.90;;
3133;SDS011;1577;49.912;10.924;2023-05-20T13:14:49;6.80;;;5.50;;
3133;SDS011;1577;49.912;10.924;2023-05-20T13:17:16;11.70;;;5.10;;
3133;SDS011;1577;49.912;10.924;2023-05-20T13:19:42;6.10;;;4.67;;
3133;SDS011;1577;49.912;10.924;2023-05-20T13:22:09;7.00;;;5.27;;
3133;SDS011;1577;49.912;10.924;2023-05-20T13:24:35;5.53;;;4.20;;
3133;SDS011;1577;49.912;10.924;2023-05-20T13:27:01;7.00;;;4.87;;
3133;SDS011;1577;49.912;10.924;2023-05-20T13:29:27;5.13;;;4.63;;
3133;SDS011;1577;49.912;10.924;2023-05-20T13:31:53;6.60;;;4.60;;
3133;SDS011;1577;49.912;10.924;2023-05-20T13:34:18;6.60;;;5.30;;
3133;SDS011;1577;49.912;10.924;2023-05-20T13:36:44;6.93;;;5.30;;
3133;SDS011;1577;49.912;10.924;2023-05-20T13:39:11;8.40;;;4.83;;
3133;SDS011;1577;49.912;10.924;2023-05-20T13:41:39;5.90;;;4.67;;
3133;SDS011;1577;49.912;10.924;2023-05-20T13:44:05;8.50;;;4.80;;
3133;SDS011;1577;49.912;10.924;2023-05-20T13:46:30;6.43;;;4.60;;
3133;SDS011;1577;49.912;10.924;2023-05-20T13:48:56;6.30;;;5.00;;
3133;SDS011;1577;49.912;10.924;2023-05-20T13:51:22;7.73;;;5.00;;
3133;SDS011;1577;49.912;10.924;2023-05-20T13:53:47;10.07;;;5.40;;
3133;SDS011;1577;49.912;10.924;2023-05-20T13:56:13;7.93;;;5.40;;
3133;SDS011;1577;49.912;10.924;2023-05-20T13:58:39;8.90;;;5.03;;
3133;SDS011;1577;49.912;10.924;2023-05-20T14:01:04;8.10;;;5.47;;
3133;SDS011;1577;49.912;10.924;2023-05-20T14:03:30;5.47;;;4.87;;
3133;SDS011;1577;49.912;10.924;2023-05-20T14:05:57;6.80;;;4.70;;
3133;SDS011;1577;49.912;10.924;2023-05-20T14:08:23;6.27;;;4.87;;
3133;SDS011;1577;49.912;10.924;2023-05-20T14:10:48;5.30;;;4.43;;
3133;SDS011;1577;49.912;10.924;2023-05-20T14:13:18;7.03;;;5.40;;
3133;SDS011;1577;49.912;10.924;2023-05-20T14:15:47;6.20;;;5.00;;
3133;SDS011;1577;49.912;10.924;2023-05-20T14:18:14;7.87;;;5.20;;
3133;SDS011;1577;49.912;10.924;2023-05-20T14:20:40;10.47;;;4.90;;
3133;SDS011;1577;49.912;10.924;2023-05-20T14:23:06;6.30;;;4.90;;
3133;SDS011;1577;49.912;10.924;2023-05-20T14:25:31;6.03;;;4.97;;
3133;SDS011;1577;49.912;10.924;2023-05-20T14:27:57;8.13;;;4.80;;
3133;SDS011;1577;49.912;10.924;2023-05-20T14:30:23;7.47;;;4.43;;
3133;SDS011;1577;49.912;10.924;2023-05-20T14:32:49;6.10;;;4.77;;
3133;SDS011;1577;49.912;10.924;2023-05-20T14:35:14;6.07;;;4.10;;
3133;SDS011;1577;49.912;10.924;2023-05-20T14:37:40;5.90;;;4.80;;
3133;SDS011;1577;49.912;10.924;2023-05-20T14:40:06;6.17;;;5.00;;
3133;SDS011;1577;49.912;10.924;2023-05-20T14:42:32;6.80;;;4.77;;
3133;SDS011;1577;49.912;10.924;2023-05-20T14:44:58;6.00;;;5.20;;
3133;SDS011;1577;49.912;10.924;2023-05-20T14:47:23;6.03;;;4.40;;
3133;SDS011;1577;49.912;10.924;2023-05-20T14:49:50;7.23;;;4.73;;
3133;SDS011;1577;49.912;10.924;2023-05-20T14:52:16;5.93;;;4.93;;
3133;SDS011;1577;49.912;10.924;2023-05-20T14:54:42;7.80;;;4.43;;
3133;SDS011;1577;49.912;10.924;2023-05-20T14:57:08;7.90;;;5.10;;
3133;SDS011;1577;49.912;10.924;2023-05-20T14:59:35;6.57;;;5.27;;
3133;SDS011;1577;49.912;10.924;2023-05-20T15:02:00;6.20;;;4.60;;
3133;SDS011;1577;49.912;10.924;2023-05-20T15:04:26;6.20;;;4.33;;
3133;SDS011;1577;49.912;10.924;2023-05-20T15:06:52;5.27;;;4.47;;
3133;SDS011;1577;49.912;10.924;2023-05-20T15:09:17;8.63;;;4.17;;
3133;SDS011;1577;49.912;10.924;2023-05-20T15:11:43;5.90;;;4.53;;
3133;SDS011;1577;49.912;10.924;2023-05-20T15:14:09;7.60;;;5.30;;
3133;SDS011;1577;49.912;10.924;2023-05-20T15:16:34;7.00;;;5.20;;